createdAt,value
2023-04-22T00:00:36.459Z,100.00
2023-04-22T00:03:05.725Z,100.00
2023-04-22T00:05:33.630Z,100.00
2023-04-22T00:08:01.815Z,100.00
2023-04-22T00:10:29.522Z,100.00
2023-04-22T00:12:57.212Z,100.00
2023-04-22T00:15:26.611Z,100.00
2023-04-22T00:17:54.582Z,100.00
2023-04-22T00:20:23.878Z,100.00
2023-04-22T00:22:51.679Z,100.00
2023-04-22T00:25:19.484Z,100.00
2023-04-22T00:27:47.267Z,100.00
2023-04-22T00:30:15.318Z,100.00
2023-04-22T00:32:43.157Z,100.00
2023-04-22T00:35:11.115Z,100.00
2023-04-22T00:37:40.250Z,100.00
2023-04-22T00:40:09.333Z,100.00
2023-04-22T00:42:38.362Z,100.00
2023-04-22T00:45:06.979Z,100.00
2023-04-22T00:47:34.743Z,100.00
2023-04-22T00:50:02.721Z,100.00
2023-04-22T00:52:30.496Z,100.00
2023-04-22T00:54:59.567Z,100.00
2023-04-22T00:57:27.812Z,100.00
2023-04-22T00:59:55.512Z,100.00
2023-04-22T01:02:23.405Z,100.00
2023-04-22T01:04:51.194Z,100.00
2023-04-22T01:07:18.966Z,100.00
2023-04-22T01:09:46.959Z,100.00
2023-04-22T01:12:15.942Z,100.00
2023-04-22T01:14:43.740Z,100.00
2023-04-22T01:17:13.858Z,100.00
2023-04-22T01:19:42.592Z,100.00
2023-04-22T01:22:13.022Z,100.00
2023-04-22T01:24:42.302Z,100.00
2023-04-22T01:27:10.515Z,100.00
2023-04-22T01:29:39.174Z,100.00
2023-04-22T01:32:07.673Z,100.00
2023-04-22T01:34:35.561Z,100.00
2023-04-22T01:37:03.361Z,100.00
2023-04-22T01:39:31.481Z,100.00
2023-04-22T01:42:02.183Z,100.00
2023-04-22T01:44:30.057Z,100.00
2023-04-22T01:46:57.869Z,100.00
2023-04-22T01:49:25.566Z,100.00
2023-04-22T01:51:53.301Z,100.00
2023-04-22T01:54:21.034Z,100.00
2023-04-22T01:56:52.654Z,100.00
2023-04-22T01:59:22.034Z,100.00
2023-04-22T02:01:50.137Z,100.00
2023-04-22T02:04:18.009Z,100.00
2023-04-22T02:06:45.714Z,100.00
2023-04-22T02:09:13.419Z,100.00
2023-04-22T02:11:41.077Z,100.00
2023-04-22T02:14:08.808Z,100.00
2023-04-22T02:16:37.854Z,100.00
2023-04-22T02:19:05.526Z,100.00
2023-04-22T02:21:33.423Z,100.00
2023-04-22T02:24:01.184Z,100.00
2023-04-22T02:26:30.560Z,100.00
2023-04-22T02:28:58.238Z,100.00
2023-04-22T02:31:26.161Z,100.00
2023-04-22T02:33:55.360Z,100.00
2023-04-22T02:36:23.077Z,100.00
2023-04-22T02:38:50.949Z,100.00
2023-04-22T02:41:18.731Z,100.00
2023-04-22T02:43:47.004Z,100.00
2023-04-22T02:46:16.229Z,100.00
2023-04-22T02:48:44.198Z,100.00
2023-04-22T02:51:13.478Z,100.00
2023-04-22T02:53:41.227Z,100.00
2023-04-22T02:56:09.600Z,100.00
2023-04-22T02:58:37.312Z,100.00
2023-04-22T03:01:05.150Z,100.00
2023-04-22T03:03:33.078Z,100.00
2023-04-22T03:06:00.981Z,100.00
2023-04-22T03:08:30.067Z,100.00
2023-04-22T03:10:57.824Z,100.00
2023-04-22T03:13:25.602Z,100.00
2023-04-22T03:15:53.393Z,100.00
2023-04-22T03:18:21.099Z,100.00
2023-04-22T03:20:49.152Z,100.00
2023-04-22T03:23:16.974Z,100.00
2023-04-22T03:25:46.097Z,100.00
2023-04-22T03:28:13.849Z,100.00
2023-04-22T03:30:41.633Z,100.00
2023-04-22T03:33:09.472Z,100.00
2023-04-22T03:35:37.202Z,100.00
2023-04-22T03:38:04.940Z,100.00
2023-04-22T03:40:32.619Z,100.00
2023-04-22T03:43:01.683Z,100.00
2023-04-22T03:45:30.098Z,100.00
2023-04-22T03:47:57.889Z,100.00
2023-04-22T03:50:26.151Z,100.00
2023-04-22T03:52:53.854Z,100.00
2023-04-22T03:55:21.722Z,100.00
2023-04-22T03:57:49.453Z,100.00
2023-04-22T04:00:18.754Z,100.00
2023-04-22T04:02:46.809Z,100.00
2023-04-22T04:05:15.021Z,100.00
2023-04-22T04:07:42.722Z,100.00
2023-04-22T04:10:12.289Z,100.00
2023-04-22T04:12:39.957Z,100.00
2023-04-22T04:15:08.873Z,100.00
2023-04-22T04:17:37.926Z,100.00
2023-04-22T04:20:07.115Z,100.00
2023-04-22T04:22:35.146Z,100.00
2023-04-22T04:25:03.418Z,100.00
2023-04-22T04:27:31.075Z,100.00
2023-04-22T04:29:58.743Z,100.00
2023-04-22T04:32:27.034Z,100.00
2023-04-22T04:34:57.649Z,100.00
2023-04-22T04:37:25.318Z,100.00
2023-04-22T04:39:53.718Z,100.00
2023-04-22T04:42:24.425Z,100.00
2023-04-22T04:44:52.134Z,100.00
2023-04-22T04:47:20.114Z,100.00
2023-04-22T04:49:47.803Z,100.00
2023-04-22T04:52:16.863Z,100.00
2023-04-22T04:54:44.604Z,100.00
2023-04-22T04:57:12.272Z,100.00
2023-04-22T04:59:40.155Z,100.00
2023-04-22T05:02:08.535Z,100.00
2023-04-22T05:04:36.372Z,100.00
2023-04-22T05:07:04.320Z,100.00
2023-04-22T05:09:37.409Z,100.00
2023-04-22T05:12:05.735Z,100.00
2023-04-22T05:14:33.474Z,100.00
2023-04-22T05:17:01.422Z,100.00
2023-04-22T05:19:29.081Z,100.00
2023-04-22T05:21:56.776Z,100.00
2023-04-22T05:24:24.406Z,100.00
2023-04-22T05:26:53.437Z,100.00
2023-04-22T05:29:21.073Z,100.00
2023-04-22T05:31:48.804Z,100.00
2023-04-22T05:34:16.620Z,100.00
2023-04-22T05:36:44.387Z,100.00
2023-04-22T05:39:12.912Z,100.00
2023-04-22T05:41:40.643Z,100.00
2023-04-22T05:44:09.674Z,100.00
2023-04-22T05:46:37.457Z,100.00
2023-04-22T05:49:05.197Z,100.00
2023-04-22T05:51:32.945Z,100.00
2023-04-22T05:54:01.064Z,100.00
2023-04-22T05:56:29.079Z,100.00
2023-04-22T05:58:56.801Z,100.00
2023-04-22T06:01:25.941Z,100.00
2023-04-22T06:03:53.730Z,100.00
2023-04-22T06:06:21.635Z,100.00
2023-04-22T06:08:49.342Z,100.00
2023-04-22T06:11:17.080Z,100.00
2023-04-22T06:13:44.716Z,100.00
2023-04-22T06:16:12.444Z,100.00
2023-04-22T06:18:43.468Z,100.00
2023-04-22T06:21:11.468Z,100.00
2023-04-22T06:23:39.312Z,100.00
2023-04-22T06:26:07.144Z,100.00
2023-04-22T06:28:34.845Z,100.00
2023-04-22T06:31:03.469Z,100.00
2023-04-22T06:33:31.206Z,100.00
2023-04-22T06:36:00.260Z,100.00
2023-04-22T06:38:27.992Z,100.00
2023-04-22T06:40:55.646Z,100.00
2023-04-22T06:43:23.288Z,100.00
2023-04-22T06:45:51.366Z,100.00
2023-04-22T06:48:19.118Z,100.00
2023-04-22T06:50:46.785Z,100.00
2023-04-22T06:53:16.004Z,100.00
2023-04-22T06:55:43.723Z,95.85
2023-04-22T06:58:11.390Z,98.21
2023-04-22T07:00:39.023Z,95.83
2023-04-22T07:03:06.759Z,94.98
2023-04-22T07:05:34.674Z,94.02
2023-04-22T07:08:02.338Z,91.02
2023-04-22T07:10:31.446Z,90.40
2023-04-22T07:12:59.070Z,87.02
2023-04-22T07:15:26.831Z,85.27
2023-04-22T07:17:54.624Z,84.65
2023-04-22T07:20:22.423Z,83.41
2023-04-22T07:22:50.156Z,82.38
2023-04-22T07:25:18.039Z,79.52
2023-04-22T07:27:47.173Z,77.37
2023-04-22T07:30:15.213Z,75.05
2023-04-22T07:32:42.882Z,72.22
2023-04-22T07:35:10.945Z,70.59
2023-04-22T07:37:38.677Z,70.01
2023-04-22T07:40:11.668Z,69.32
2023-04-22T07:42:39.726Z,69.14
2023-04-22T07:45:09.752Z,67.61
2023-04-22T07:47:37.559Z,68.18
2023-04-22T07:50:49.987Z,67.09
2023-04-22T07:53:17.746Z,68.35
2023-04-22T07:55:46.288Z,68.52
2023-04-22T07:58:13.959Z,65.95
2023-04-22T08:00:41.694Z,68.32
2023-04-22T08:03:09.795Z,66.91
2023-04-22T08:05:37.716Z,66.53
2023-04-22T08:08:07.249Z,66.39
2023-04-22T08:10:34.931Z,67.89
2023-04-22T08:13:02.710Z,68.49
2023-04-22T08:15:30.619Z,68.24
2023-04-22T08:17:58.464Z,67.50
2023-04-22T08:20:26.813Z,66.62
2023-04-22T08:22:58.180Z,67.60
2023-04-22T08:25:27.437Z,66.71
2023-04-22T08:27:55.152Z,66.04
2023-04-22T08:30:22.928Z,67.84
2023-04-22T08:32:52.998Z,69.46
2023-04-22T08:35:20.816Z,71.24
2023-04-22T08:37:48.599Z,74.94
2023-04-22T08:40:16.325Z,72.28
2023-04-22T08:42:46.261Z,72.91
2023-04-22T08:45:14.685Z,71.96
2023-04-22T08:47:42.530Z,68.66
2023-04-22T08:50:10.776Z,69.82
2023-04-22T08:52:38.736Z,68.69
2023-04-22T08:55:07.597Z,70.08
2023-04-22T08:57:37.335Z,68.03
2023-04-22T09:00:08.725Z,66.07
2023-04-22T09:02:38.126Z,67.63
2023-04-22T09:05:07.672Z,63.83
2023-04-22T09:07:36.459Z,63.46
2023-04-22T09:10:04.326Z,64.53
2023-04-22T09:12:32.081Z,62.96
2023-04-22T09:14:59.747Z,63.25
2023-04-22T09:17:38.166Z,60.62
2023-04-22T09:20:08.796Z,61.11
2023-04-22T09:22:41.148Z,61.05
2023-04-22T09:25:16.807Z,62.82
2023-04-22T09:27:44.635Z,61.32
2023-04-22T09:30:14.702Z,60.46
2023-04-22T09:32:43.808Z,59.21
2023-04-22T09:35:11.603Z,56.81
2023-04-22T09:37:48.887Z,54.79
2023-04-22T09:40:18.023Z,55.60
2023-04-22T09:42:49.938Z,53.61
2023-04-22T09:45:28.465Z,52.85
2023-04-22T09:47:58.456Z,53.75
2023-04-22T09:50:27.786Z,53.01
2023-04-22T09:52:57.142Z,52.19
2023-04-22T09:55:26.354Z,53.89
2023-04-22T09:57:55.136Z,52.66
2023-04-22T10:00:24.153Z,51.98
2023-04-22T10:02:52.069Z,51.80
2023-04-22T10:05:21.893Z,52.68
2023-04-22T10:07:49.736Z,51.44
2023-04-22T10:10:17.575Z,50.40
2023-04-22T10:12:45.638Z,48.67
2023-04-22T10:15:13.431Z,48.70
2023-04-22T10:17:41.688Z,49.85
2023-04-22T10:20:14.456Z,49.58
2023-04-22T10:22:43.989Z,49.05
2023-04-22T10:25:15.511Z,48.73
2023-04-22T10:27:43.220Z,47.81
2023-04-22T10:30:12.561Z,47.15
2023-04-22T10:32:40.337Z,45.84
2023-04-22T10:35:12.996Z,47.95
2023-04-22T10:37:46.021Z,46.72
2023-04-22T10:40:17.232Z,46.46
2023-04-22T10:42:52.236Z,46.98
2023-04-22T10:45:20.864Z,48.21
2023-04-22T10:47:48.621Z,47.45
2023-04-22T10:50:22.653Z,48.60
2023-04-22T10:52:53.814Z,47.25
2023-04-22T10:55:21.781Z,48.38
2023-04-22T10:57:51.221Z,47.34
2023-04-22T11:00:53.011Z,47.95
2023-04-22T11:03:27.652Z,46.33
2023-04-22T11:06:17.399Z,48.14
2023-04-22T11:08:48.130Z,46.53
2023-04-22T11:11:18.510Z,47.17
2023-04-22T11:13:50.576Z,45.73
2023-04-22T11:16:20.470Z,45.16
2023-04-22T11:18:49.384Z,45.03
2023-04-22T11:21:17.366Z,45.44
2023-04-22T11:23:53.006Z,45.00
2023-04-22T11:26:33.981Z,44.07
2023-04-22T11:29:01.766Z,43.69
2023-04-22T11:31:29.444Z,42.83
2023-04-22T11:33:59.912Z,42.68
2023-04-22T11:36:27.690Z,43.47
2023-04-22T11:38:57.154Z,41.60
2023-04-22T11:41:26.034Z,42.36
2023-04-22T11:43:54.846Z,42.97
2023-04-22T11:46:30.084Z,43.10
2023-04-22T11:49:12.758Z,43.09
2023-04-22T11:51:53.430Z,42.62
2023-04-22T11:54:34.778Z,43.96
2023-04-22T11:57:04.373Z,44.46
2023-04-22T11:59:32.162Z,43.71
2023-04-22T12:01:59.913Z,43.68
2023-04-22T12:04:27.714Z,44.74
2023-04-22T12:06:55.486Z,44.96
2023-04-22T12:09:25.825Z,43.97
2023-04-22T12:11:54.955Z,43.66
2023-04-22T12:14:22.800Z,43.51
2023-04-22T12:16:51.788Z,44.08
2023-04-22T12:19:26.801Z,44.83
2023-04-22T12:21:56.603Z,44.27
2023-04-22T12:24:29.027Z,43.97
2023-04-22T12:26:58.727Z,44.45
2023-04-22T12:29:32.527Z,44.38
2023-04-22T12:32:00.472Z,43.27
2023-04-22T12:34:28.229Z,42.93
2023-04-22T12:36:56.362Z,42.97
2023-04-22T12:39:24.140Z,42.33
2023-04-22T12:41:51.836Z,42.33
2023-04-22T12:44:21.726Z,42.35
2023-04-22T12:46:51.350Z,41.19
2023-04-22T12:49:19.148Z,41.39
2023-04-22T12:51:46.929Z,41.60
2023-04-22T12:54:14.619Z,40.08
2023-04-22T12:56:42.327Z,39.95
2023-04-22T12:59:10.013Z,39.16
2023-04-22T13:01:39.231Z,38.23
2023-04-22T13:04:07.597Z,37.97
2023-04-22T13:06:36.293Z,37.67
2023-04-22T13:09:04.426Z,37.69
2023-04-22T13:11:32.277Z,37.63
2023-04-22T13:14:00.024Z,38.46
2023-04-22T13:16:27.818Z,38.37
2023-04-22T13:18:56.891Z,38.29
2023-04-22T13:21:24.616Z,39.08
2023-04-22T13:23:53.171Z,39.92
2023-04-22T13:26:21.042Z,39.77
2023-04-22T13:28:48.826Z,39.94
2023-04-22T13:31:16.783Z,39.97
2023-04-22T13:33:45.077Z,40.74
2023-04-22T13:36:14.132Z,40.56
2023-04-22T13:38:41.907Z,41.65
2023-04-22T13:41:09.684Z,43.63
2023-04-22T13:43:37.961Z,44.17
2023-04-22T13:46:06.552Z,45.18
2023-04-22T13:48:34.272Z,47.98
2023-04-22T13:51:01.950Z,47.48
2023-04-22T13:53:32.379Z,47.87
2023-04-22T13:56:01.198Z,47.61
2023-04-22T13:58:28.919Z,46.02
2023-04-22T14:00:56.611Z,45.27
2023-04-22T14:03:24.792Z,45.07
2023-04-22T14:05:52.786Z,44.03
2023-04-22T14:08:20.513Z,43.26
2023-04-22T14:10:49.662Z,41.44
2023-04-22T14:13:17.433Z,41.46
2023-04-22T14:15:45.152Z,42.02
2023-04-22T14:18:12.932Z,40.91
2023-04-22T14:20:41.207Z,41.07
2023-04-22T14:23:08.897Z,41.04
2023-04-22T14:25:36.622Z,41.28
2023-04-22T14:28:05.721Z,40.72
2023-04-22T14:30:33.630Z,40.64
2023-04-22T14:33:01.579Z,40.37
2023-04-22T14:35:29.769Z,40.74
2023-04-22T14:37:57.476Z,41.24
2023-04-22T14:40:28.118Z,41.70
2023-04-22T14:42:55.902Z,42.44
2023-04-22T14:45:25.497Z,42.84
2023-04-22T14:47:53.848Z,44.66
2023-04-22T14:50:21.812Z,44.63
2023-04-22T14:52:49.631Z,46.38
2023-04-22T14:55:23.113Z,49.45
2023-04-22T14:57:56.811Z,60.99
2023-04-22T15:00:26.754Z,64.78
2023-04-22T15:02:55.288Z,66.35
2023-04-22T15:05:23.662Z,68.42
2023-04-22T15:07:51.480Z,69.51
2023-04-22T15:10:19.598Z,69.01
2023-04-22T15:12:47.337Z,68.53
2023-04-22T15:15:16.096Z,71.08
2023-04-22T15:17:45.724Z,72.02
2023-04-22T15:20:13.877Z,74.14
2023-04-22T15:22:42.205Z,74.98
2023-04-22T15:25:10.909Z,71.21
2023-04-22T15:27:39.121Z,72.05
2023-04-22T15:30:08.530Z,77.55
2023-04-22T15:32:37.120Z,84.22
2023-04-22T15:35:07.351Z,90.27
2023-04-22T15:37:35.181Z,98.36
2023-04-22T15:40:03.652Z,100.00
2023-04-22T15:42:31.439Z,100.00
2023-04-22T15:44:59.226Z,100.00
2023-04-22T15:47:29.046Z,100.00
2023-04-22T15:49:57.391Z,100.00
2023-04-22T15:52:26.429Z,100.00
2023-04-22T15:54:54.154Z,100.00
2023-04-22T15:57:21.850Z,100.00
2023-04-22T15:59:56.259Z,100.00
2023-04-22T16:02:31.077Z,100.00
2023-04-22T16:04:58.906Z,100.00
2023-04-22T16:07:27.975Z,100.00
2023-04-22T16:09:55.724Z,100.00
2023-04-22T16:12:23.852Z,99.59
2023-04-22T16:14:51.692Z,99.88
2023-04-22T16:17:20.137Z,100.00
2023-04-22T16:19:47.911Z,100.00
2023-04-22T16:22:15.739Z,100.00
2023-04-22T16:24:44.757Z,100.00
2023-04-22T16:27:16.256Z,100.00
2023-04-22T16:29:44.494Z,100.00
2023-04-22T16:32:12.168Z,100.00
2023-04-22T16:34:39.948Z,100.00
2023-04-22T16:37:07.798Z,100.00
2023-04-22T16:39:35.532Z,100.00
2023-04-22T16:42:04.666Z,100.00
2023-04-22T16:44:32.391Z,100.00
2023-04-22T16:47:00.186Z,100.00
2023-04-22T16:49:27.871Z,100.00
2023-04-22T16:51:55.710Z,100.00
2023-04-22T16:54:23.493Z,100.00
2023-04-22T16:56:51.186Z,100.00
2023-04-22T16:59:20.255Z,100.00
2023-04-22T17:01:48.056Z,100.00
2023-04-22T17:04:16.104Z,100.00
2023-04-22T17:06:45.717Z,100.00
2023-04-22T17:09:13.465Z,100.00
2023-04-22T17:11:41.210Z,100.00
2023-04-22T17:14:08.953Z,100.00
2023-04-22T17:16:38.404Z,100.00
2023-04-22T17:19:06.081Z,100.00
2023-04-22T17:21:34.212Z,100.00
2023-04-22T17:24:03.813Z,100.00
2023-04-22T17:26:31.558Z,100.00
2023-04-22T17:28:59.324Z,100.00
2023-04-22T17:31:27.546Z,100.00
2023-04-22T17:33:56.671Z,100.00
2023-04-22T17:36:24.469Z,100.00
2023-04-22T17:38:52.189Z,100.00
2023-04-22T17:41:19.863Z,100.00
2023-04-22T17:43:47.587Z,100.00
2023-04-22T17:46:15.783Z,100.00
2023-04-22T17:48:46.529Z,100.00
2023-04-22T17:51:15.842Z,100.00
2023-04-22T17:53:43.560Z,100.00
2023-04-22T17:56:11.353Z,100.00
2023-04-22T17:58:39.185Z,100.00
2023-04-22T18:01:07.328Z,100.00
2023-04-22T18:03:35.678Z,100.00
2023-04-22T18:06:03.547Z,100.00
2023-04-22T18:08:32.637Z,100.00
2023-04-22T18:11:02.096Z,100.00
2023-04-22T18:13:29.834Z,100.00
2023-04-22T18:15:57.482Z,100.00
2023-04-22T18:18:25.232Z,100.00
2023-04-22T18:20:53.034Z,100.00
2023-04-22T18:23:21.204Z,100.00
2023-04-22T18:25:50.309Z,100.00
2023-04-22T18:28:18.067Z,100.00
2023-04-22T18:30:45.747Z,100.00
2023-04-22T18:33:13.468Z,100.00
2023-04-22T18:35:42.037Z,100.00
2023-04-22T18:38:09.791Z,100.00
2023-04-22T18:40:37.455Z,100.00
2023-04-22T18:43:06.536Z,100.00
2023-04-22T18:45:34.274Z,100.00
2023-04-22T18:48:02.116Z,100.00
2023-04-22T18:50:30.019Z,100.00
2023-04-22T18:52:57.660Z,100.00
2023-04-22T18:55:25.470Z,100.00
2023-04-22T18:57:53.209Z,100.00
2023-04-22T19:00:22.471Z,100.00
2023-04-22T19:02:50.370Z,100.00
2023-04-22T19:05:18.164Z,100.00
2023-04-22T19:07:45.883Z,100.00
2023-04-22T19:10:13.770Z,100.00
2023-04-22T19:12:41.618Z,100.00
2023-04-22T19:15:10.085Z,100.00
2023-04-22T19:17:39.293Z,100.00
2023-04-22T19:20:08.507Z,100.00
2023-04-22T19:22:36.413Z,100.00
2023-04-22T19:25:06.411Z,100.00
2023-04-22T19:27:34.533Z,100.00
2023-04-22T19:30:02.270Z,100.00
2023-04-22T19:32:30.058Z,100.00
2023-04-22T19:34:59.601Z,100.00
2023-04-22T19:37:28.281Z,100.00
2023-04-22T19:39:56.035Z,100.00
2023-04-22T19:42:23.752Z,100.00
2023-04-22T19:44:52.016Z,100.00
2023-04-22T19:47:20.103Z,100.00
2023-04-22T19:49:48.302Z,100.00
2023-04-22T19:52:17.522Z,100.00
2023-04-22T19:54:47.854Z,100.00
2023-04-22T19:57:16.117Z,100.00
2023-04-22T19:59:44.747Z,100.00
2023-04-22T20:02:14.212Z,100.00
2023-04-22T20:04:42.712Z,100.00
2023-04-22T20:07:11.934Z,100.00
2023-04-22T20:09:41.399Z,100.00
2023-04-22T20:12:09.535Z,100.00
2023-04-22T20:14:37.978Z,100.00
2023-04-22T20:17:07.361Z,100.00
2023-04-22T20:19:35.331Z,100.00
2023-04-22T20:22:04.009Z,100.00
2023-04-22T20:24:33.040Z,100.00
2023-04-22T20:27:02.334Z,100.00
2023-04-22T20:29:31.118Z,100.00
2023-04-22T20:31:59.250Z,100.00
2023-04-22T20:34:27.649Z,100.00
2023-04-22T20:36:55.476Z,100.00
2023-04-22T20:39:23.663Z,100.00
2023-04-22T20:41:56.315Z,100.00
2023-04-22T20:44:26.106Z,100.00
2023-04-22T20:46:55.779Z,100.00
2023-04-22T20:49:23.508Z,100.00
2023-04-22T20:51:51.301Z,100.00
2023-04-22T20:54:28.507Z,100.00
2023-04-22T20:56:57.794Z,100.00
2023-04-22T20:59:26.908Z,100.00
2023-04-22T21:01:55.403Z,100.00
2023-04-22T21:04:24.130Z,100.00
2023-04-22T21:06:52.499Z,100.00
2023-04-22T21:09:21.716Z,100.00
2023-04-22T21:11:51.178Z,100.00
2023-04-22T21:14:20.918Z,100.00
2023-04-22T21:16:55.105Z,100.00
2023-04-22T21:19:23.442Z,100.00
2023-04-22T21:21:52.387Z,100.00
2023-04-22T21:24:21.040Z,100.00
2023-04-22T21:26:48.938Z,100.00
2023-04-22T21:29:17.130Z,100.00
2023-04-22T21:31:51.582Z,100.00
2023-04-22T21:34:26.918Z,100.00
2023-04-22T21:36:54.688Z,100.00
2023-04-22T21:39:22.409Z,100.00
2023-04-22T21:41:50.227Z,100.00
2023-04-22T21:44:17.899Z,100.00
2023-04-22T21:46:46.514Z,100.00
2023-04-22T21:49:14.234Z,100.00
2023-04-22T21:51:43.375Z,100.00
2023-04-22T21:54:11.131Z,100.00
2023-04-22T21:56:38.872Z,100.00
2023-04-22T21:59:06.656Z,100.00
2023-04-22T22:01:34.493Z,100.00
2023-04-22T22:04:04.108Z,100.00
2023-04-22T22:06:33.326Z,100.00
2023-04-22T22:09:02.516Z,100.00
2023-04-22T22:11:31.481Z,100.00
2023-04-22T22:13:59.482Z,100.00
2023-04-22T22:16:27.391Z,100.00
2023-04-22T22:18:55.714Z,100.00
2023-04-22T22:21:23.574Z,100.00
2023-04-22T22:23:51.825Z,100.00
2023-04-22T22:26:21.372Z,100.00
2023-04-22T22:28:49.211Z,100.00
2023-04-22T22:31:16.908Z,100.00
2023-04-22T22:33:45.026Z,100.00
2023-04-22T22:36:12.848Z,100.00
2023-04-22T22:38:40.669Z,100.00
2023-04-22T22:41:08.356Z,100.00
2023-04-22T22:43:37.383Z,100.00
2023-04-22T22:46:05.256Z,100.00
2023-04-22T22:48:33.216Z,100.00
2023-04-22T22:51:01.702Z,100.00
2023-04-22T22:53:29.419Z,100.00
2023-04-22T22:55:57.124Z,100.00
2023-04-22T22:58:24.906Z,100.00
2023-04-22T23:00:54.107Z,100.00
2023-04-22T23:03:22.085Z,100.00
2023-04-22T23:05:49.826Z,100.00
2023-04-22T23:08:17.600Z,100.00
2023-04-22T23:10:45.287Z,100.00
2023-04-22T23:13:12.967Z,100.00
2023-04-22T23:15:40.837Z,100.00
2023-04-22T23:18:10.600Z,100.00
2023-04-22T23:20:38.419Z,100.00
2023-04-22T23:23:06.436Z,100.00
2023-04-22T23:25:34.715Z,100.00
2023-04-22T23:28:03.626Z,100.00
2023-04-22T23:30:31.886Z,100.00
2023-04-22T23:33:02.690Z,100.00
2023-04-22T23:35:34.488Z,100.00
2023-04-22T23:38:05.438Z,100.00
2023-04-22T23:40:33.129Z,100.00
2023-04-22T23:43:00.805Z,100.00
2023-04-22T23:45:28.535Z,100.00
2023-04-22T23:47:56.247Z,100.00
2023-04-22T23:50:23.998Z,100.00
2023-04-22T23:52:53.119Z,100.00
2023-04-22T23:55:21.483Z,100.00
2023-04-22T23:57:49.937Z,100.00
